sensor_id;sensor_type;location;lat;lon;timestamp;pressure;altitude;pressure_sealevel;temperature;humidity
50380;BME280;37474;59.468;18.040;2022-07-04T00:00:21;101436.47;;;16.31;99.95
50380;BME280;37474;59.468;18.040;2022-07-04T00:02:51;101432.38;;;16.27;100.00
50380;BME280;37474;59.468;18.040;2022-07-04T00:05:19;101425.59;;;16.23;100.00
50380;BME280;37474;59.468;18.040;2022-07-04T00:07:50;101431.13;;;16.20;100.00
50380;BME280;37474;59.468;18.040;2022-07-04T00:10:22;101430.16;;;16.21;100.00
50380;BME280;37474;59.468;18.040;2022-07-04T00:12:50;101428.47;;;16.20;100.00
50380;BME280;37474;59.468;18.040;2022-07-04T00:15:23;101424.13;;;16.19;100.00
50380;BME280;37474;59.468;18.040;2022-07-04T00:17:53;101421.28;;;16.22;100.00
50380;BME280;37474;59.468;18.040;2022-07-04T00:20:21;101425.81;;;16.20;100.00
50380;BME280;37474;59.468;18.040;2022-07-04T00:22:51;101423.81;;;16.23;100.00
50380;BME280;37474;59.468;18.040;2022-07-04T00:25:19;101427.41;;;16.22;100.00
50380;BME280;37474;59.468;18.040;2022-07-04T00:27:47;101417.47;;;16.26;100.00
50380;BME280;37474;59.468;18.040;2022-07-04T00:30:17;101414.28;;;16.21;100.00
50380;BME280;37474;59.468;18.040;2022-07-04T00:32:48;101416.50;;;16.27;100.00
50380;BME280;37474;59.468;18.040;2022-07-04T00:35:16;101418.41;;;16.25;100.00
50380;BME280;37474;59.468;18.040;2022-07-04T00:37:46;101414.09;;;16.24;100.00
50380;BME280;37474;59.468;18.040;2022-07-04T00:40:16;101418.31;;;16.26;100.00
50380;BME280;37474;59.468;18.040;2022-07-04T00:42:44;101412.38;;;16.23;100.00
50380;BME280;37474;59.468;18.040;2022-07-04T00:45:14;101413.34;;;16.22;100.00
50380;BME280;37474;59.468;18.040;2022-07-04T00:47:43;101411.75;;;16.19;100.00
50380;BME280;37474;59.468;18.040;2022-07-04T00:50:13;101408.06;;;16.22;100.00
50380;BME280;37474;59.468;18.040;2022-07-04T00:52:42;101407.31;;;16.20;100.00
50380;BME280;37474;59.468;18.040;2022-07-04T00:55:12;101402.47;;;16.14;100.00
50380;BME280;37474;59.468;18.040;2022-07-04T00:57:42;101397.19;;;16.14;100.00
50380;BME280;37474;59.468;18.040;2022-07-04T01:00:12;101397.28;;;16.12;100.00
50380;BME280;37474;59.468;18.040;2022-07-04T01:02:42;101394.13;;;16.07;100.00
50380;BME280;37474;59.468;18.040;2022-07-04T01:05:15;101402.47;;;16.14;100.00
50380;BME280;37474;59.468;18.040;2022-07-04T01:07:43;101396.75;;;16.20;100.00
50380;BME280;37474;59.468;18.040;2022-07-04T01:10:11;101387.13;;;16.19;100.00
50380;BME280;37474;59.468;18.040;2022-07-04T01:12:42;101381.31;;;16.14;100.00
50380;BME280;37474;59.468;18.040;2022-07-04T01:15:11;101387.66;;;16.11;100.00
50380;BME280;37474;59.468;18.040;2022-07-04T01:17:41;101380.25;;;16.16;100.00
50380;BME280;37474;59.468;18.040;2022-07-04T01:20:12;101382.91;;;16.16;100.00
50380;BME280;37474;59.468;18.040;2022-07-04T01:22:42;101379.59;;;16.25;100.00
50380;BME280;37474;59.468;18.040;2022-07-04T01:25:12;101381.41;;;16.25;100.00
50380;BME280;37474;59.468;18.040;2022-07-04T01:27:41;101386.28;;;16.18;100.00
50380;BME280;37474;59.468;18.040;2022-07-04T01:30:11;101378.75;;;16.25;98.57
50380;BME280;37474;59.468;18.040;2022-07-04T01:32:43;101386.63;;;16.14;100.00
50380;BME280;37474;59.468;18.040;2022-07-04T01:35:12;101380.47;;;16.13;100.00
50380;BME280;37474;59.468;18.040;2022-07-04T01:37:39;101374.13;;;16.16;100.00
50380;BME280;37474;59.468;18.040;2022-07-04T01:40:12;101375.81;;;16.17;100.00
50380;BME280;37474;59.468;18.040;2022-07-04T01:42:41;101368.63;;;16.19;100.00
50380;BME280;37474;59.468;18.040;2022-07-04T01:45:10;101369.81;;;16.15;100.00
50380;BME280;37474;59.468;18.040;2022-07-04T01:47:45;101363.88;;;16.11;100.00
50380;BME280;37474;59.468;18.040;2022-07-04T01:50:14;101371.72;;;16.13;100.00
50380;BME280;37474;59.468;18.040;2022-07-04T01:52:44;101371.41;;;16.05;100.00
50380;BME280;37474;59.468;18.040;2022-07-04T01:55:14;101362.53;;;16.06;100.00
50380;BME280;37474;59.468;18.040;2022-07-04T01:57:42;101367.47;;;16.10;100.00
50380;BME280;37474;59.468;18.040;2022-07-04T02:00:12;101359.78;;;16.07;100.00
50380;BME280;37474;59.468;18.040;2022-07-04T02:02:59;101367.47;;;16.10;100.00
50380;BME280;37474;59.468;18.040;2022-07-04T02:05:30;101364.44;;;16.03;100.00
50380;BME280;37474;59.468;18.040;2022-07-04T02:07:59;101371.81;;;16.11;100.00
50380;BME280;37474;59.468;18.040;2022-07-04T02:10:30;101369.50;;;16.07;100.00
50380;BME280;37474;59.468;18.040;2022-07-04T02:13:00;101367.81;;;16.06;100.00
50380;BME280;37474;59.468;18.040;2022-07-04T02:15:28;101362.94;;;16.12;100.00
50380;BME280;37474;59.468;18.040;2022-07-04T02:18:01;101362.81;;;16.14;100.00
50380;BME280;37474;59.468;18.040;2022-07-04T02:20:34;101361.88;;;16.15;100.00
50380;BME280;37474;59.468;18.040;2022-07-04T02:23:04;101364.41;;;16.16;100.00
50380;BME280;37474;59.468;18.040;2022-07-04T02:25:34;101356.59;;;16.15;100.00
50380;BME280;37474;59.468;18.040;2022-07-04T02:28:02;101359.00;;;16.18;100.00
50380;BME280;37474;59.468;18.040;2022-07-04T02:30:32;101361.22;;;16.24;100.00
50380;BME280;37474;59.468;18.040;2022-07-04T02:33:04;101358.34;;;16.27;100.00
50380;BME280;37474;59.468;18.040;2022-07-04T02:35:33;101351.66;;;16.34;99.39
50380;BME280;37474;59.468;18.040;2022-07-04T02:38:01;101352.91;;;16.41;96.75
50380;BME280;37474;59.468;18.040;2022-07-04T02:40:33;101348.13;;;16.46;98.05
50380;BME280;37474;59.468;18.040;2022-07-04T02:43:01;101343.47;;;16.50;96.58
50380;BME280;37474;59.468;18.040;2022-07-04T02:45:28;101356.34;;;16.54;96.03
50380;BME280;37474;59.468;18.040;2022-07-04T02:48:00;101353.72;;;16.54;97.26
50380;BME280;37474;59.468;18.040;2022-07-04T02:50:32;101346.28;;;16.59;96.12
50380;BME280;37474;59.468;18.040;2022-07-04T02:53:00;101347.00;;;16.61;95.00
50380;BME280;37474;59.468;18.040;2022-07-04T02:55:30;101344.66;;;16.70;93.39
50380;BME280;37474;59.468;18.040;2022-07-04T02:58:00;101340.69;;;16.75;93.35
50380;BME280;37474;59.468;18.040;2022-07-04T03:00:28;101343.47;;;16.74;94.28
50380;BME280;37474;59.468;18.040;2022-07-04T03:02:58;101332.75;;;16.75;93.87
50380;BME280;37474;59.468;18.040;2022-07-04T03:05:28;101328.66;;;16.71;93.70
50380;BME280;37474;59.468;18.040;2022-07-04T03:08:02;101330.72;;;16.79;92.46
50380;BME280;37474;59.468;18.040;2022-07-04T03:10:32;101318.97;;;16.83;91.71
50380;BME280;37474;59.468;18.040;2022-07-04T03:13:00;101321.00;;;16.79;92.57
50380;BME280;37474;59.468;18.040;2022-07-04T03:15:35;101306.97;;;16.90;91.22
50380;BME280;37474;59.468;18.040;2022-07-04T03:18:05;101314.44;;;16.96;91.68
50380;BME280;37474;59.468;18.040;2022-07-04T03:20:32;101308.91;;;16.99;92.74
50380;BME280;37474;59.468;18.040;2022-07-04T03:23:02;101305.09;;;17.14;90.76
50380;BME280;37474;59.468;18.040;2022-07-04T03:25:32;101305.47;;;17.21;90.43
50380;BME280;37474;59.468;18.040;2022-07-04T03:28:00;101303.19;;;17.27;89.92
50380;BME280;37474;59.468;18.040;2022-07-04T03:30:30;101314.03;;;17.36;89.48
50380;BME280;37474;59.468;18.040;2022-07-04T03:32:59;101302.50;;;17.48;89.50
50380;BME280;37474;59.468;18.040;2022-07-04T03:35:28;101301.78;;;17.57;89.29
50380;BME280;37474;59.468;18.040;2022-07-04T03:37:58;101299.50;;;17.63;89.71
50380;BME280;37474;59.468;18.040;2022-07-04T03:40:29;101299.38;;;17.65;89.77
50380;BME280;37474;59.468;18.040;2022-07-04T03:42:57;101293.34;;;17.74;87.67
50380;BME280;37474;59.468;18.040;2022-07-04T03:45:28;101291.06;;;17.81;88.96
50380;BME280;37474;59.468;18.040;2022-07-04T03:47:57;101289.72;;;17.86;88.07
50380;BME280;37474;59.468;18.040;2022-07-04T03:50:27;101289.72;;;17.86;88.46
50380;BME280;37474;59.468;18.040;2022-07-04T03:52:55;101290.69;;;17.96;88.46
50380;BME280;37474;59.468;18.040;2022-07-04T03:55:25;101288.38;;;18.03;87.51
50380;BME280;37474;59.468;18.040;2022-07-04T03:57:56;101294.50;;;18.15;87.75
50380;BME280;37474;59.468;18.040;2022-07-04T04:00:24;101290.13;;;18.25;86.07
50380;BME280;37474;59.468;18.040;2022-07-04T04:02:52;101282.78;;;18.28;87.27
50380;BME280;37474;59.468;18.040;2022-07-04T04:05:22;101289.75;;;18.29;87.03
50380;BME280;37474;59.468;18.040;2022-07-04T04:08:01;101282.16;;;18.36;87.03
50380;BME280;37474;59.468;18.040;2022-07-04T04:10:31;101279.72;;;18.44;87.03
50380;BME280;37474;59.468;18.040;2022-07-04T04:13:00;101268.22;;;18.55;87.28
50380;BME280;37474;59.468;18.040;2022-07-04T04:15:30;101266.63;;;18.64;86.35
50380;BME280;37474;59.468;18.040;2022-07-04T04:18:00;101271.00;;;18.53;86.82
50380;BME280;37474;59.468;18.040;2022-07-04T04:20:28;101260.88;;;18.47;87.34
50380;BME280;37474;59.468;18.040;2022-07-04T04:22:57;101260.00;;;18.58;87.76
50380;BME280;37474;59.468;18.040;2022-07-04T04:25:27;101249.63;;;18.66;87.25
50380;BME280;37474;59.468;18.040;2022-07-04T04:27:55;101253.88;;;18.78;86.91
50380;BME280;37474;59.468;18.040;2022-07-04T04:30:25;101250.44;;;18.87;86.14
50380;BME280;37474;59.468;18.040;2022-07-04T04:32:55;101246.69;;;18.90;86.56
50380;BME280;37474;59.468;18.040;2022-07-04T04:35:23;101251.91;;;19.01;85.71
50380;BME280;37474;59.468;18.040;2022-07-04T04:37:52;101251.25;;;19.09;85.54
50380;BME280;37474;59.468;18.040;2022-07-04T04:40:22;101256.56;;;19.09;85.06
50380;BME280;37474;59.468;18.040;2022-07-04T04:42:50;101243.66;;;19.25;85.15
50380;BME280;37474;59.468;18.040;2022-07-04T04:45:18;101244.41;;;19.37;84.02
50380;BME280;37474;59.468;18.040;2022-07-04T04:47:49;101244.44;;;19.46;82.51
50380;BME280;37474;59.468;18.040;2022-07-04T04:50:21;101248.75;;;19.68;82.90
50380;BME280;37474;59.468;18.040;2022-07-04T04:52:51;101244.28;;;19.78;80.51
50380;BME280;37474;59.468;18.040;2022-07-04T04:55:19;101251.88;;;19.92;81.19
50380;BME280;37474;59.468;18.040;2022-07-04T04:57:50;101248.38;;;20.02;80.67
50380;BME280;37474;59.468;18.040;2022-07-04T05:00:20;101251.47;;;20.07;78.69
50380;BME280;37474;59.468;18.040;2022-07-04T05:02:49;101245.34;;;20.16;80.08
50380;BME280;37474;59.468;18.040;2022-07-04T05:05:17;101242.25;;;20.20;75.49
50380;BME280;37474;59.468;18.040;2022-07-04T05:07:47;101248.13;;;20.24;75.14
50380;BME280;37474;59.468;18.040;2022-07-04T05:10:15;101234.84;;;20.34;75.96
50380;BME280;37474;59.468;18.040;2022-07-04T05:12:43;101234.59;;;20.46;74.11
50380;BME280;37474;59.468;18.040;2022-07-04T05:15:13;101231.38;;;20.52;72.69
50380;BME280;37474;59.468;18.040;2022-07-04T05:17:41;101227.00;;;20.71;73.75
50380;BME280;37474;59.468;18.040;2022-07-04T05:20:11;101224.94;;;21.02;71.84
50380;BME280;37474;59.468;18.040;2022-07-04T05:22:41;101225.47;;;21.15;70.20
50380;BME280;37474;59.468;18.040;2022-07-04T05:25:09;101229.34;;;21.40;67.11
50380;BME280;37474;59.468;18.040;2022-07-04T05:27:37;101218.94;;;21.46;66.97
50380;BME280;37474;59.468;18.040;2022-07-04T05:30:10;101219.91;;;21.73;66.22
50380;BME280;37474;59.468;18.040;2022-07-04T05:32:38;101217.03;;;22.55;65.00
50380;BME280;37474;59.468;18.040;2022-07-04T05:35:07;101212.44;;;22.65;62.31
50380;BME280;37474;59.468;18.040;2022-07-04T05:37:38;101200.63;;;22.68;61.73
50380;BME280;37474;59.468;18.040;2022-07-04T05:40:09;101195.97;;;22.96;61.84
50380;BME280;37474;59.468;18.040;2022-07-04T05:42:37;101194.50;;;23.35;61.63
50380;BME280;37474;59.468;18.040;2022-07-04T05:45:08;101191.81;;;23.77;60.45
50380;BME280;37474;59.468;18.040;2022-07-04T05:47:37;101186.16;;;24.05;59.52
50380;BME280;37474;59.468;18.040;2022-07-04T05:50:06;101181.84;;;24.36;56.97
50380;BME280;37474;59.468;18.040;2022-07-04T05:52:36;101174.44;;;24.06;55.66
50380;BME280;37474;59.468;18.040;2022-07-04T05:55:06;101189.66;;;23.97;58.18
50380;BME280;37474;59.468;18.040;2022-07-04T05:57:34;101187.97;;;23.96;57.54
50380;BME280;37474;59.468;18.040;2022-07-04T06:00:11;101181.28;;;23.76;57.51
50380;BME280;37474;59.468;18.040;2022-07-04T06:02:41;101184.06;;;23.58;57.88
50380;BME280;37474;59.468;18.040;2022-07-04T06:05:09;101172.13;;;23.44;60.14
50380;BME280;37474;59.468;18.040;2022-07-04T06:07:41;101167.66;;;23.53;59.89
50380;BME280;37474;59.468;18.040;2022-07-04T06:10:10;101177.75;;;23.67;58.86
50380;BME280;37474;59.468;18.040;2022-07-04T06:12:38;101172.25;;;23.35;58.75
50380;BME280;37474;59.468;18.040;2022-07-04T06:15:09;101168.53;;;23.54;58.61
50380;BME280;37474;59.468;18.040;2022-07-04T06:17:39;101164.88;;;23.71;57.74
50380;BME280;37474;59.468;18.040;2022-07-04T06:20:08;101164.25;;;24.01;57.60
50380;BME280;37474;59.468;18.040;2022-07-04T06:22:44;101171.44;;;24.01;56.50
50380;BME280;37474;59.468;18.040;2022-07-04T06:25:15;101164.75;;;23.97;56.51
50380;BME280;37474;59.468;18.040;2022-07-04T06:27:48;101169.41;;;23.95;55.82
50380;BME280;37474;59.468;18.040;2022-07-04T06:30:20;101164.75;;;23.89;55.70
50380;BME280;37474;59.468;18.040;2022-07-04T06:32:51;101168.41;;;23.96;56.38
50380;BME280;37474;59.468;18.040;2022-07-04T06:35:21;101171.72;;;23.57;56.11
50380;BME280;37474;59.468;18.040;2022-07-04T06:38:14;101164.97;;;23.53;56.98
50380;BME280;37474;59.468;18.040;2022-07-04T06:40:42;101167.19;;;23.58;55.88
50380;BME280;37474;59.468;18.040;2022-07-04T06:43:11;101166.41;;;23.98;58.29
50380;BME280;37474;59.468;18.040;2022-07-04T06:45:39;101166.78;;;24.35;56.24
50380;BME280;37474;59.468;18.040;2022-07-04T06:48:07;101155.56;;;24.48;53.60
50380;BME280;37474;59.468;18.040;2022-07-04T06:50:43;101156.72;;;24.21;54.49
50380;BME280;37474;59.468;18.040;2022-07-04T06:53:12;101152.38;;;24.12;53.74
50380;BME280;37474;59.468;18.040;2022-07-04T06:55:42;101157.06;;;23.86;55.07
50380;BME280;37474;59.468;18.040;2022-07-04T06:58:13;101147.03;;;23.88;56.50
50380;BME280;37474;59.468;18.040;2022-07-04T07:00:41;101154.03;;;24.13;55.13
50380;BME280;37474;59.468;18.040;2022-07-04T07:03:09;101141.66;;;24.69;52.88
50380;BME280;37474;59.468;18.040;2022-07-04T07:05:38;101149.28;;;24.96;51.72
50380;BME280;37474;59.468;18.040;2022-07-04T07:08:26;101139.75;;;25.33;49.57
50380;BME280;37474;59.468;18.040;2022-07-04T07:10:54;101145.91;;;25.72;49.04
50380;BME280;37474;59.468;18.040;2022-07-04T07:13:22;101133.81;;;25.06;49.22
50380;BME280;37474;59.468;18.040;2022-07-04T07:15:50;101139.13;;;24.75;53.09
50380;BME280;37474;59.468;18.040;2022-07-04T07:18:20;101139.69;;;24.47;53.57
50380;BME280;37474;59.468;18.040;2022-07-04T07:20:48;101151.38;;;24.21;54.76
50380;BME280;37474;59.468;18.040;2022-07-04T07:23:16;101151.38;;;24.05;55.33
50380;BME280;37474;59.468;18.040;2022-07-04T07:25:46;101149.69;;;23.71;55.10
50380;BME280;37474;59.468;18.040;2022-07-04T07:28:14;101153.34;;;23.62;55.42
50380;BME280;37474;59.468;18.040;2022-07-04T07:30:41;101148.66;;;23.64;56.47
50380;BME280;37474;59.468;18.040;2022-07-04T07:33:10;101142.66;;;23.95;56.54
50380;BME280;37474;59.468;18.040;2022-07-04T07:35:38;101140.78;;;23.55;56.69
50380;BME280;37474;59.468;18.040;2022-07-04T07:38:06;101128.81;;;23.33;55.46
50380;BME280;37474;59.468;18.040;2022-07-04T07:40:34;101131.44;;;23.16;56.82
50380;BME280;37474;59.468;18.040;2022-07-04T07:43:03;101135.03;;;23.41;56.19
50380;BME280;37474;59.468;18.040;2022-07-04T07:45:31;101128.34;;;23.45;55.30
50380;BME280;37474;59.468;18.040;2022-07-04T07:48:01;101132.09;;;23.19;56.40
50380;BME280;37474;59.468;18.040;2022-07-04T07:50:29;101136.31;;;23.29;56.77
50380;BME280;37474;59.468;18.040;2022-07-04T07:52:58;101125.38;;;23.06;56.96
50380;BME280;37474;59.468;18.040;2022-07-04T07:55:30;101137.44;;;23.19;57.53
50380;BME280;37474;59.468;18.040;2022-07-04T07:57:57;101128.50;;;23.36;57.80
50380;BME280;37474;59.468;18.040;2022-07-04T08:00:28;101121.69;;;23.49;56.16
50380;BME280;37474;59.468;18.040;2022-07-04T08:03:15;101135.28;;;23.56;56.15
50380;BME280;37474;59.468;18.040;2022-07-04T08:06:01;101126.84;;;23.43;55.96
50380;BME280;37474;59.468;18.040;2022-07-04T08:08:29;101123.16;;;23.36;56.77
50380;BME280;37474;59.468;18.040;2022-07-04T08:10:57;101118.59;;;23.87;56.86
50380;BME280;37474;59.468;18.040;2022-07-04T08:13:25;101111.91;;;23.91;54.28
50380;BME280;37474;59.468;18.040;2022-07-04T08:15:58;101112.09;;;23.89;53.41
50380;BME280;37474;59.468;18.040;2022-07-04T08:18:26;101096.34;;;23.62;51.82
50380;BME280;37474;59.468;18.040;2022-07-04T08:20:54;101105.72;;;23.74;52.85
50380;BME280;37474;59.468;18.040;2022-07-04T08:23:32;101107.06;;;23.86;53.75
50380;BME280;37474;59.468;18.040;2022-07-04T08:26:00;101109.25;;;23.91;51.78
50380;BME280;37474;59.468;18.040;2022-07-04T08:28:30;101099.53;;;23.82;53.21
50380;BME280;37474;59.468;18.040;2022-07-04T08:31:02;101101.19;;;24.07;53.07
50380;BME280;37474;59.468;18.040;2022-07-04T08:33:31;101100.84;;;24.02;50.83
50380;BME280;37474;59.468;18.040;2022-07-04T08:36:04;101105.19;;;23.62;52.77
50380;BME280;37474;59.468;18.040;2022-07-04T08:38:32;101093.09;;;23.50;52.18
50380;BME280;37474;59.468;18.040;2022-07-04T08:41:03;101095.69;;;23.76;53.53
50380;BME280;37474;59.468;18.040;2022-07-04T08:43:34;101087.66;;;23.84;52.56
50380;BME280;37474;59.468;18.040;2022-07-04T08:46:06;101096.16;;;23.63;53.00
50380;BME280;37474;59.468;18.040;2022-07-04T08:48:51;101089.50;;;23.75;54.33
50380;BME280;37474;59.468;18.040;2022-07-04T08:51:29;101090.84;;;23.79;54.37
50380;BME280;37474;59.468;18.040;2022-07-04T08:54:03;101087.63;;;23.92;54.55
50380;BME280;37474;59.468;18.040;2022-07-04T08:56:54;101081.28;;;24.18;55.49
50380;BME280;37474;59.468;18.040;2022-07-04T08:59:42;101077.75;;;24.41;53.44
50380;BME280;37474;59.468;18.040;2022-07-04T09:02:18;101083.28;;;24.40;54.35
50380;BME280;37474;59.468;18.040;2022-07-04T09:04:49;101075.59;;;24.29;53.52
50380;BME280;37474;59.468;18.040;2022-07-04T09:07:20;101078.13;;;23.65;53.10
50380;BME280;37474;59.468;18.040;2022-07-04T09:09:49;101080.31;;;23.20;53.96
50380;BME280;37474;59.468;18.040;2022-07-04T09:12:24;101074.56;;;22.98;56.36
50380;BME280;37474;59.468;18.040;2022-07-04T09:14:52;101075.41;;;22.99;56.29
50380;BME280;37474;59.468;18.040;2022-07-04T09:17:21;101071.53;;;22.85;55.01
50380;BME280;37474;59.468;18.040;2022-07-04T09:20:11;101068.03;;;22.59;56.03
50380;BME280;37474;59.468;18.040;2022-07-04T09:22:42;101082.38;;;22.58;56.36
50380;BME280;37474;59.468;18.040;2022-07-04T09:25:13;101076.94;;;22.67;55.22
50380;BME280;37474;59.468;18.040;2022-07-04T09:27:43;101073.75;;;22.64;53.98
50380;BME280;37474;59.468;18.040;2022-07-04T09:30:14;101064.78;;;22.73;53.83
50380;BME280;37474;59.468;18.040;2022-07-04T09:32:45;101056.28;;;22.77;53.22
50380;BME280;37474;59.468;18.040;2022-07-04T09:35:17;101051.34;;;22.91;52.85
50380;BME280;37474;59.468;18.040;2022-07-04T09:37:50;101057.25;;;23.10;51.76
50380;BME280;37474;59.468;18.040;2022-07-04T09:40:25;101051.44;;;23.23;51.46
50380;BME280;37474;59.468;18.040;2022-07-04T09:42:56;101058.66;;;22.89;52.69
50380;BME280;37474;59.468;18.040;2022-07-04T09:45:28;101062.22;;;22.97;53.50
50380;BME280;37474;59.468;18.040;2022-07-04T09:47:59;101059.56;;;23.05;53.67
50380;BME280;37474;59.468;18.040;2022-07-04T09:50:29;101057.53;;;22.99;54.43
50380;BME280;37474;59.468;18.040;2022-07-04T09:52:59;101044.22;;;23.15;54.21
50380;BME280;37474;59.468;18.040;2022-07-04T09:55:33;101059.00;;;23.52;54.41
50380;BME280;37474;59.468;18.040;2022-07-04T09:58:05;101055.72;;;23.74;54.24
50380;BME280;37474;59.468;18.040;2022-07-04T10:00:39;101066.75;;;23.63;53.79
50380;BME280;37474;59.468;18.040;2022-07-04T10:03:19;101067.41;;;23.57;54.83
50380;BME280;37474;59.468;18.040;2022-07-04T10:06:02;101059.84;;;23.44;53.74
50380;BME280;37474;59.468;18.040;2022-07-04T10:08:31;101053.63;;;23.28;53.25
50380;BME280;37474;59.468;18.040;2022-07-04T10:11:04;101051.75;;;23.20;51.27
50380;BME280;37474;59.468;18.040;2022-07-04T10:13:36;101059.59;;;23.13;51.54
50380;BME280;37474;59.468;18.040;2022-07-04T10:16:07;101062.47;;;23.20;51.05
50380;BME280;37474;59.468;18.040;2022-07-04T10:18:37;101051.91;;;23.10;50.03
50380;BME280;37474;59.468;18.040;2022-07-04T10:21:05;101056.09;;;23.13;51.73
50380;BME280;37474;59.468;18.040;2022-07-04T10:23:36;101058.75;;;23.13;51.96
50380;BME280;37474;59.468;18.040;2022-07-04T10:26:05;101056.72;;;22.99;50.83
50380;BME280;37474;59.468;18.040;2022-07-04T10:28:33;101059.88;;;22.86;51.28
50380;BME280;37474;59.468;18.040;2022-07-04T10:31:05;101062.69;;;22.85;52.13
50380;BME280;37474;59.468;18.040;2022-07-04T10:33:34;101055.25;;;22.70;52.27
50380;BME280;37474;59.468;18.040;2022-07-04T10:36:04;101062.19;;;22.81;53.39
50380;BME280;37474;59.468;18.040;2022-07-04T10:38:47;101073.38;;;22.93;53.78
50380;BME280;37474;59.468;18.040;2022-07-04T10:41:16;101070.47;;;22.18;53.85
50380;BME280;37474;59.468;18.040;2022-07-04T10:44:07;101074.50;;;22.22;55.56
50380;BME280;37474;59.468;18.040;2022-07-04T10:46:48;101081.22;;;21.91;57.32
50380;BME280;37474;59.468;18.040;2022-07-04T10:49:20;101087.66;;;21.62;57.20
50380;BME280;37474;59.468;18.040;2022-07-04T10:51:51;101081.84;;;21.49;60.51
50380;BME280;37474;59.468;18.040;2022-07-04T10:54:29;101077.97;;;21.43;59.66
50380;BME280;37474;59.468;18.040;2022-07-04T10:57:09;101088.16;;;21.30;62.91
50380;BME280;37474;59.468;18.040;2022-07-04T10:59:38;101090.88;;;21.11;66.46
50380;BME280;37474;59.468;18.040;2022-07-04T11:02:29;101093.94;;;20.88;66.20
50380;BME280;37474;59.468;18.040;2022-07-04T11:05:01;101088.91;;;20.58;69.21
50380;BME280;37474;59.468;18.040;2022-07-04T11:07:56;101079.84;;;20.22;75.01
50380;BME280;37474;59.468;18.040;2022-07-04T11:10:29;101091.78;;;19.99;77.91
50380;BME280;37474;59.468;18.040;2022-07-04T11:13:17;101087.72;;;19.85;74.92
50380;BME280;37474;59.468;18.040;2022-07-04T11:16:06;101098.66;;;19.63;76.95
50380;BME280;37474;59.468;18.040;2022-07-04T11:18:44;101120.72;;;19.04;81.75
50380;BME280;37474;59.468;18.040;2022-07-04T11:21:21;101101.47;;;18.29;85.59
50380;BME280;37474;59.468;18.040;2022-07-04T11:23:52;101104.91;;;18.20;86.72
50380;BME280;37474;59.468;18.040;2022-07-04T11:26:21;101093.13;;;18.13;91.97
50380;BME280;37474;59.468;18.040;2022-07-04T11:28:52;101080.06;;;18.21;91.73
50380;BME280;37474;59.468;18.040;2022-07-04T11:31:20;101077.88;;;18.26;87.68
50380;BME280;37474;59.468;18.040;2022-07-04T11:33:54;101086.91;;;18.24;84.31
50380;BME280;37474;59.468;18.040;2022-07-04T11:36:22;101101.09;;;18.34;87.17
50380;BME280;37474;59.468;18.040;2022-07-04T11:38:55;101094.09;;;18.33;89.03
50380;BME280;37474;59.468;18.040;2022-07-04T11:41:29;101094.28;;;18.20;88.99
50380;BME280;37474;59.468;18.040;2022-07-04T11:44:16;101082.81;;;17.78;90.99
50380;BME280;37474;59.468;18.040;2022-07-04T11:47:06;101088.09;;;17.78;93.23
50380;BME280;37474;59.468;18.040;2022-07-04T11:49:35;101068.50;;;17.70;96.18
50380;BME280;37474;59.468;18.040;2022-07-04T11:52:03;101041.47;;;17.66;95.31
50380;BME280;37474;59.468;18.040;2022-07-04T11:54:33;101032.34;;;17.80;94.01
50380;BME280;37474;59.468;18.040;2022-07-04T11:57:21;101040.75;;;18.06;91.85
50380;BME280;37474;59.468;18.040;2022-07-04T12:00:00;101053.63;;;18.10;90.68
50380;BME280;37474;59.468;18.040;2022-07-04T12:02:30;101050.91;;;18.01;92.11
50380;BME280;37474;59.468;18.040;2022-07-04T12:05:00;101043.97;;;17.88;95.43
50380;BME280;37474;59.468;18.040;2022-07-04T12:07:30;101028.25;;;17.76;96.21
50380;BME280;37474;59.468;18.040;2022-07-04T12:10:08;101011.78;;;17.72;93.88
50380;BME280;37474;59.468;18.040;2022-07-04T12:12:50;101004.81;;;17.71;94.41
50380;BME280;37474;59.468;18.040;2022-07-04T12:15:22;101008.69;;;17.88;94.35
50380;BME280;37474;59.468;18.040;2022-07-04T12:17:51;100999.91;;;17.87;94.16
50380;BME280;37474;59.468;18.040;2022-07-04T12:20:21;100988.00;;;18.03;93.88
50380;BME280;37474;59.468;18.040;2022-07-04T12:22:51;100981.97;;;18.21;91.37
50380;BME280;37474;59.468;18.040;2022-07-04T12:25:31;100974.13;;;18.20;88.55
50380;BME280;37474;59.468;18.040;2022-07-04T12:28:01;100970.44;;;18.32;90.00
50380;BME280;37474;59.468;18.040;2022-07-04T12:30:30;100974.25;;;18.49;88.80
50380;BME280;37474;59.468;18.040;2022-07-04T12:33:01;100958.28;;;18.79;87.76
50380;BME280;37474;59.468;18.040;2022-07-04T12:35:36;100956.91;;;18.85;83.80
50380;BME280;37474;59.468;18.040;2022-07-04T12:38:06;100957.22;;;19.01;86.61
50380;BME280;37474;59.468;18.040;2022-07-04T12:40:37;100943.81;;;19.03;83.37
50380;BME280;37474;59.468;18.040;2022-07-04T12:43:18;100945.34;;;18.95;83.56
50380;BME280;37474;59.468;18.040;2022-07-04T12:45:50;100958.91;;;19.02;83.75
50380;BME280;37474;59.468;18.040;2022-07-04T12:48:23;100957.75;;;18.95;82.92
50380;BME280;37474;59.468;18.040;2022-07-04T12:50:55;100959.34;;;19.26;82.16
50380;BME280;37474;59.468;18.040;2022-07-04T12:53:36;100945.78;;;20.05;79.52
50380;BME280;37474;59.468;18.040;2022-07-04T12:56:06;100939.56;;;20.61;79.90
50380;BME280;37474;59.468;18.040;2022-07-04T12:58:34;100930.63;;;20.80;79.47